createdAt,value
2023-02-13T00:01:05.687Z,3.27
2023-02-13T00:03:34.142Z,1.43
2023-02-13T00:06:02.561Z,0.50
2023-02-13T00:08:32.389Z,13.37
2023-02-13T00:11:00.872Z,6.43
2023-02-13T00:13:29.284Z,5.80
2023-02-13T00:15:58.444Z,5.80
2023-02-13T00:18:26.852Z,6.33
2023-02-13T00:21:02.032Z,5.20
2023-02-13T00:23:33.545Z,1.43
2023-02-13T00:26:02.776Z,2.60
2023-02-13T00:28:31.190Z,2.00
2023-02-13T00:31:04.635Z,0.50
2023-02-13T00:33:33.181Z,2.13
2023-02-13T00:36:05.410Z,2.47
2023-02-13T00:38:35.376Z,3.07
2023-02-13T00:41:04.074Z,2.63
2023-02-13T00:43:32.997Z,10.33
2023-02-13T00:46:01.503Z,1.27
2023-02-13T00:48:30.758Z,1.97
2023-02-13T00:50:59.693Z,0.83
2023-02-13T00:53:28.755Z,1.10
2023-02-13T00:55:58.782Z,2.30
2023-02-13T00:58:27.582Z,6.20
2023-02-13T01:00:56.770Z,5.03
2023-02-13T01:03:26.088Z,7.17
2023-02-13T01:05:54.838Z,4.40
2023-02-13T01:08:23.273Z,1.90
2023-02-13T01:10:51.954Z,1.03
2023-02-13T01:13:22.153Z,1.00
2023-02-13T01:15:50.737Z,5.13
2023-02-13T01:18:20.019Z,1.67
2023-02-13T01:20:57.510Z,2.70
2023-02-13T01:23:26.198Z,4.03
2023-02-13T01:25:54.645Z,1.43
2023-02-13T01:28:24.591Z,1.27
2023-02-13T01:30:56.874Z,8.20
2023-02-13T01:33:26.000Z,1.37
2023-02-13T01:35:54.985Z,3.37
2023-02-13T01:38:23.560Z,0.90
2023-02-13T01:40:52.917Z,1.00
2023-02-13T01:43:23.465Z,0.73
2023-02-13T01:45:54.903Z,1.10
2023-02-13T01:48:25.340Z,3.90
2023-02-13T01:50:57.323Z,1.23
2023-02-13T01:53:28.065Z,1.00
2023-02-13T01:55:57.748Z,0.70
2023-02-13T01:58:28.336Z,7.03
2023-02-13T02:00:58.613Z,3.73
2023-02-13T02:03:29.860Z,3.73
2023-02-13T02:06:00.016Z,7.30
2023-02-13T02:08:28.950Z,2.53
2023-02-13T02:10:58.638Z,0.83
2023-02-13T02:13:27.949Z,1.20
2023-02-13T02:15:57.920Z,2.20
2023-02-13T02:18:26.431Z,2.17
2023-02-13T02:21:17.525Z,1.17
2023-02-13T02:24:03.823Z,12.50
2023-02-13T02:26:46.049Z,3.57
2023-02-13T02:29:30.208Z,4.53
2023-02-13T02:32:22.797Z,4.67
2023-02-13T02:34:56.716Z,7.13
2023-02-13T02:37:35.794Z,8.60
2023-02-13T02:40:10.127Z,6.90
2023-02-13T02:42:43.619Z,2.27
2023-02-13T02:45:15.019Z,3.67
2023-02-13T02:48:05.421Z,3.73
2023-02-13T02:50:37.745Z,1.37
2023-02-13T02:53:20.946Z,2.40
2023-02-13T02:55:52.545Z,2.87
2023-02-13T02:58:40.035Z,2.63
2023-02-13T03:01:27.304Z,4.97
2023-02-13T03:04:14.904Z,1.73
2023-02-13T03:06:47.941Z,2.60
2023-02-13T03:09:35.243Z,4.10
2023-02-13T03:12:21.435Z,6.23
2023-02-13T03:14:50.294Z,6.10
2023-02-13T03:17:37.826Z,1.47
2023-02-13T03:20:32.423Z,6.93
2023-02-13T03:23:06.441Z,3.73
2023-02-13T03:25:38.023Z,7.77
2023-02-13T03:28:27.150Z,4.40
2023-02-13T03:31:00.764Z,2.90
2023-02-13T03:33:38.641Z,5.07
2023-02-13T03:36:31.064Z,5.80
2023-02-13T03:39:03.157Z,3.20
2023-02-13T03:41:33.457Z,5.83
2023-02-13T03:44:07.842Z,9.73
2023-02-13T03:46:38.114Z,1.33
2023-02-13T03:49:25.051Z,2.40
2023-02-13T03:51:55.653Z,5.87
2023-02-13T03:54:45.491Z,5.80
2023-02-13T03:57:33.671Z,7.60
2023-02-13T04:00:03.966Z,15.03
2023-02-13T04:02:34.480Z,15.93
2023-02-13T04:05:06.859Z,5.03
2023-02-13T04:07:35.583Z,2.83
2023-02-13T04:10:07.493Z,9.97
2023-02-13T04:12:41.376Z,8.33
2023-02-13T04:15:14.527Z,15.20
2023-02-13T04:17:45.437Z,5.30
2023-02-13T04:20:13.982Z,23.70
2023-02-13T04:22:45.942Z,2.70
2023-02-13T04:25:17.339Z,5.53
2023-02-13T04:27:45.799Z,6.43
2023-02-13T04:30:14.806Z,27.13
2023-02-13T04:32:43.294Z,15.43
2023-02-13T04:35:13.775Z,6.00
2023-02-13T04:37:42.205Z,21.70
2023-02-13T04:40:11.438Z,7.83
2023-02-13T04:42:41.280Z,2.60
2023-02-13T04:45:10.124Z,3.77
2023-02-13T04:47:38.530Z,5.47
2023-02-13T04:50:07.494Z,7.63
2023-02-13T04:52:35.895Z,11.10
2023-02-13T04:55:04.363Z,1.40
2023-02-13T04:57:32.785Z,6.30
2023-02-13T05:00:02.626Z,3.53
2023-02-13T05:02:31.078Z,0.73
2023-02-13T05:04:59.444Z,2.77
2023-02-13T05:07:27.938Z,6.33
2023-02-13T05:09:56.413Z,6.73
2023-02-13T05:12:24.900Z,14.23
2023-02-13T05:14:53.520Z,2.27
2023-02-13T05:17:23.309Z,8.40
2023-02-13T05:19:51.778Z,12.73
2023-02-13T05:22:37.976Z,5.40
2023-02-13T05:25:06.602Z,5.80
2023-02-13T05:27:35.090Z,10.73
2023-02-13T05:30:02.603Z,13.10
2023-02-13T05:32:32.455Z,0.97
2023-02-13T05:35:03.993Z,7.10
2023-02-13T05:37:32.786Z,10.57
2023-02-13T05:40:01.262Z,8.13
2023-02-13T05:42:29.787Z,6.60
2023-02-13T05:44:58.229Z,2.00
2023-02-13T05:47:26.736Z,6.33
2023-02-13T05:49:56.634Z,6.43
2023-02-13T05:52:25.128Z,6.73
2023-02-13T05:54:53.527Z,3.80
2023-02-13T05:57:22.045Z,1.80
2023-02-13T05:59:50.485Z,6.57
2023-02-13T06:02:19.156Z,3.50
2023-02-13T06:04:47.678Z,3.43
2023-02-13T06:07:17.617Z,0.67
2023-02-13T06:09:46.077Z,4.70
2023-02-13T06:12:14.528Z,3.93
2023-02-13T06:14:42.989Z,6.17
2023-02-13T06:17:14.656Z,6.53
2023-02-13T06:19:43.166Z,4.30
2023-02-13T06:22:11.628Z,5.70
2023-02-13T06:24:41.536Z,7.60
2023-02-13T06:27:10.143Z,2.30
2023-02-13T06:29:38.743Z,10.70
2023-02-13T06:32:07.373Z,6.60
2023-02-13T06:34:35.842Z,2.23
2023-02-13T06:37:04.421Z,8.47
2023-02-13T06:39:32.924Z,2.00
2023-02-13T06:42:02.927Z,1.67
2023-02-13T06:44:31.458Z,3.13
2023-02-13T06:47:00.043Z,13.57
2023-02-13T06:49:28.645Z,1.20
2023-02-13T06:51:57.192Z,3.57
2023-02-13T06:54:37.291Z,1.30
2023-02-13T06:57:15.528Z,7.63
2023-02-13T06:59:44.030Z,8.50
2023-02-13T07:02:12.783Z,12.93
2023-02-13T07:04:41.391Z,12.60
2023-02-13T07:07:10.002Z,9.40
2023-02-13T07:09:38.558Z,0.87
2023-02-13T07:12:07.281Z,5.00
2023-02-13T07:14:37.197Z,6.30
2023-02-13T07:17:07.542Z,4.63
2023-02-13T07:19:36.086Z,5.30
2023-02-13T07:22:04.553Z,0.70
2023-02-13T07:24:35.374Z,1.87
2023-02-13T07:27:03.992Z,2.40
2023-02-13T07:29:36.901Z,7.43
2023-02-13T07:32:09.219Z,2.97
2023-02-13T07:34:37.830Z,4.00
2023-02-13T07:37:06.351Z,6.60
2023-02-13T07:39:34.851Z,2.53
2023-02-13T07:42:03.278Z,3.27
2023-02-13T07:44:32.333Z,2.63
2023-02-13T07:47:01.274Z,6.83
2023-02-13T07:49:31.232Z,4.80
2023-02-13T07:51:59.751Z,4.83
2023-02-13T07:54:28.226Z,6.93
2023-02-13T07:56:56.723Z,3.03
2023-02-13T07:59:25.322Z,4.13
2023-02-13T08:01:53.769Z,1.93
2023-02-13T08:04:22.968Z,0.70
2023-02-13T08:06:53.730Z,3.17
2023-02-13T08:09:41.027Z,0.83
2023-02-13T08:12:10.527Z,2.00
2023-02-13T08:14:39.164Z,15.50
2023-02-13T08:17:07.709Z,3.70
2023-02-13T08:19:36.290Z,7.57
2023-02-13T08:22:06.311Z,5.43
2023-02-13T08:24:34.911Z,4.73
2023-02-13T08:27:03.402Z,4.00
2023-02-13T08:29:31.972Z,25.67
2023-02-13T08:32:00.497Z,4.40
2023-02-13T08:34:32.106Z,2.83
2023-02-13T08:37:00.570Z,1.90
2023-02-13T08:39:31.689Z,3.40
2023-02-13T08:42:00.353Z,6.50
2023-02-13T08:44:28.824Z,7.77
2023-02-13T08:46:57.883Z,6.07
2023-02-13T08:49:26.456Z,6.63
2023-02-13T08:51:55.026Z,5.03
2023-02-13T08:54:23.479Z,10.10
2023-02-13T08:56:53.655Z,1.57
2023-02-13T08:59:28.159Z,21.67
2023-02-13T09:01:56.791Z,3.70
2023-02-13T09:04:25.314Z,1.00
2023-02-13T09:06:54.207Z,4.30
2023-02-13T09:09:22.738Z,2.43
2023-02-13T09:11:52.604Z,10.60
2023-02-13T09:14:24.800Z,4.90
2023-02-13T09:16:53.642Z,5.63
2023-02-13T09:19:22.412Z,10.43
2023-02-13T09:21:50.932Z,2.83
2023-02-13T09:24:19.487Z,7.13
2023-02-13T09:26:48.068Z,11.50
2023-02-13T09:29:16.656Z,4.17
2023-02-13T09:31:48.342Z,4.70
2023-02-13T09:34:17.218Z,10.70
2023-02-13T09:36:45.817Z,11.87
2023-02-13T09:39:14.384Z,12.13
2023-02-13T09:41:44.090Z,11.53
2023-02-13T09:44:34.055Z,12.00
2023-02-13T09:47:05.464Z,4.20
2023-02-13T09:49:35.451Z,12.40
2023-02-13T09:52:04.198Z,8.60
2023-02-13T09:54:32.915Z,22.50
2023-02-13T09:57:03.042Z,11.30
2023-02-13T09:59:36.059Z,15.47
2023-02-13T10:02:16.051Z,7.13
2023-02-13T10:04:49.999Z,17.37
2023-02-13T10:07:22.788Z,7.03
2023-02-13T10:09:55.879Z,21.10
2023-02-13T10:12:32.898Z,8.23
2023-02-13T10:15:12.749Z,13.37
2023-02-13T10:17:49.892Z,17.03
2023-02-13T10:20:22.008Z,13.00
2023-02-13T10:22:53.301Z,9.70
2023-02-13T10:25:24.463Z,10.80
2023-02-13T10:27:55.643Z,9.63
2023-02-13T10:30:26.559Z,16.13
2023-02-13T10:33:14.395Z,15.77
2023-02-13T10:35:43.818Z,16.07
2023-02-13T10:38:17.731Z,8.57
2023-02-13T10:40:51.472Z,10.03
2023-02-13T10:43:23.419Z,15.40
2023-02-13T10:45:59.050Z,24.60
2023-02-13T10:48:35.430Z,17.40
2023-02-13T10:51:07.195Z,14.73
2023-02-13T10:53:43.218Z,16.40
2023-02-13T10:56:18.364Z,7.60
2023-02-13T10:58:52.860Z,12.80
2023-02-13T11:01:24.730Z,15.57
2023-02-13T11:04:03.762Z,16.00
2023-02-13T11:06:34.220Z,22.60
2023-02-13T11:09:04.842Z,12.20
2023-02-13T11:11:34.419Z,17.50
2023-02-13T11:14:10.731Z,6.93
2023-02-13T11:16:44.944Z,14.97
2023-02-13T11:19:20.497Z,7.13
2023-02-13T11:21:49.494Z,16.07
2023-02-13T11:24:23.050Z,15.67
2023-02-13T11:26:56.080Z,19.40
2023-02-13T11:29:26.190Z,15.37
2023-02-13T11:32:12.811Z,16.30
2023-02-13T11:34:42.994Z,18.13
2023-02-13T11:37:18.914Z,17.00
2023-02-13T11:39:50.825Z,14.10
2023-02-13T11:42:22.843Z,12.10
2023-02-13T11:44:53.555Z,13.90
2023-02-13T11:47:32.800Z,14.20
2023-02-13T11:50:03.060Z,19.47
2023-02-13T11:52:33.117Z,22.63
2023-02-13T11:55:05.194Z,9.83
2023-02-13T11:57:34.960Z,18.23
2023-02-13T12:00:22.590Z,12.63
2023-02-13T12:02:52.309Z,13.60
2023-02-13T12:05:23.873Z,16.10
2023-02-13T12:07:52.830Z,18.67
2023-02-13T12:10:22.933Z,14.40
2023-02-13T12:12:55.290Z,17.27
2023-02-13T12:15:25.284Z,12.20
2023-02-13T12:17:59.027Z,16.47
2023-02-13T12:20:31.150Z,12.10
2023-02-13T12:23:03.763Z,16.03
2023-02-13T12:25:44.331Z,26.10
2023-02-13T12:28:14.497Z,7.63
2023-02-13T12:31:01.331Z,7.33
2023-02-13T12:33:37.300Z,20.57
2023-02-13T12:36:12.476Z,13.80
2023-02-13T12:38:48.213Z,15.40
2023-02-13T12:41:18.898Z,12.63
2023-02-13T12:44:11.417Z,13.27
2023-02-13T12:46:44.359Z,6.03
2023-02-13T12:49:20.804Z,18.20
2023-02-13T12:51:54.750Z,18.70
2023-02-13T12:54:33.941Z,15.53
2023-02-13T12:57:13.221Z,12.87
2023-02-13T12:59:48.786Z,12.70
2023-02-13T13:02:27.676Z,13.70
2023-02-13T13:05:02.940Z,11.97
2023-02-13T13:07:41.022Z,23.73
2023-02-13T13:10:20.995Z,13.67
2023-02-13T13:12:54.268Z,12.27
2023-02-13T13:15:28.880Z,10.50
2023-02-13T13:18:01.662Z,10.83
2023-02-13T13:20:38.283Z,9.43
2023-02-13T13:23:13.163Z,2.37
2023-02-13T13:25:45.867Z,12.23
2023-02-13T13:28:17.712Z,12.83
2023-02-13T13:30:47.187Z,14.90
2023-02-13T13:33:17.658Z,9.93
2023-02-13T13:35:48.738Z,13.30
2023-02-13T13:38:21.224Z,14.97
2023-02-13T13:40:53.403Z,8.87
2023-02-13T13:43:25.988Z,15.50
2023-02-13T13:46:01.787Z,9.17
2023-02-13T13:48:50.998Z,18.70
2023-02-13T13:51:20.751Z,14.03
2023-02-13T13:54:16.455Z,10.37
2023-02-13T13:57:03.902Z,19.23
2023-02-13T13:59:51.805Z,7.10
2023-02-13T14:02:41.593Z,3.70
2023-02-13T14:05:26.194Z,13.27
2023-02-13T14:07:58.830Z,27.13
2023-02-13T14:10:47.334Z,17.17
2023-02-13T14:13:30.737Z,10.90
2023-02-13T14:15:59.404Z,15.57
2023-02-13T14:18:28.554Z,17.53
2023-02-13T14:20:59.087Z,1.87
2023-02-13T14:23:38.269Z,3.33
2023-02-13T14:26:27.933Z,12.23
2023-02-13T14:28:58.101Z,5.57
2023-02-13T14:31:29.564Z,14.63
2023-02-13T14:33:59.461Z,16.27
2023-02-13T14:36:32.316Z,20.07
2023-02-13T14:39:03.342Z,23.00
2023-02-13T14:41:58.641Z,6.23
2023-02-13T14:44:31.599Z,4.77
2023-02-13T14:47:01.235Z,9.73
2023-02-13T14:49:30.612Z,15.13
2023-02-13T14:51:59.968Z,4.73
2023-02-13T14:54:32.455Z,2.83
2023-02-13T14:57:09.448Z,20.37
2023-02-13T14:59:38.866Z,19.30
2023-02-13T15:02:16.219Z,15.47
2023-02-13T15:04:46.499Z,18.53
2023-02-13T15:07:17.054Z,19.23
2023-02-13T15:09:50.360Z,22.13
2023-02-13T15:12:29.660Z,17.50
2023-02-13T15:14:58.251Z,21.63
2023-02-13T15:17:30.027Z,8.93
2023-02-13T15:20:01.158Z,19.63
2023-02-13T15:22:33.056Z,19.10
2023-02-13T15:25:02.973Z,18.80
2023-02-13T15:27:32.241Z,15.40
2023-02-13T15:30:02.103Z,11.30
2023-02-13T15:32:32.297Z,15.87
2023-02-13T15:35:00.789Z,12.87
2023-02-13T15:37:31.101Z,20.20
2023-02-13T15:40:14.410Z,15.77
2023-02-13T15:42:44.477Z,16.97
2023-02-13T15:45:16.967Z,18.60
2023-02-13T15:47:45.907Z,20.10
2023-02-13T15:50:18.918Z,13.63
2023-02-13T15:52:47.694Z,4.87
2023-02-13T15:55:20.474Z,20.17
2023-02-13T15:57:51.591Z,6.83
2023-02-13T16:00:23.269Z,4.00
2023-02-13T16:02:53.183Z,18.40
2023-02-13T16:05:37.527Z,14.53
2023-02-13T16:08:26.661Z,16.27
2023-02-13T16:11:09.949Z,6.40
2023-02-13T16:13:39.948Z,6.73
2023-02-13T16:16:11.230Z,21.50
2023-02-13T16:18:41.933Z,13.77
2023-02-13T16:21:10.496Z,20.37
2023-02-13T16:23:39.404Z,17.33
2023-02-13T16:26:09.842Z,18.77
2023-02-13T16:28:39.934Z,18.30
2023-02-13T16:31:08.744Z,18.27
2023-02-13T16:33:37.841Z,19.43
2023-02-13T16:36:19.862Z,20.87
2023-02-13T16:38:48.903Z,18.87
2023-02-13T16:41:35.303Z,10.93
2023-02-13T16:44:23.398Z,21.57
2023-02-13T16:46:54.576Z,17.17
2023-02-13T16:49:24.330Z,18.67
2023-02-13T16:52:12.242Z,18.90
2023-02-13T16:54:51.480Z,19.23
2023-02-13T16:57:23.682Z,17.90
2023-02-13T17:00:11.576Z,16.73
2023-02-13T17:02:41.992Z,20.80
2023-02-13T17:05:17.127Z,17.67
2023-02-13T17:07:46.953Z,13.90
2023-02-13T17:10:20.038Z,14.60
2023-02-13T17:12:49.136Z,19.40
2023-02-13T17:15:18.723Z,2.57
2023-02-13T17:17:48.803Z,1.57
2023-02-13T17:20:18.406Z,1.63
2023-02-13T17:22:47.855Z,1.17
2023-02-13T17:25:18.888Z,0.53
2023-02-13T17:27:47.386Z,0.50
2023-02-13T17:30:19.659Z,0.50
2023-02-13T17:32:50.357Z,0.47
2023-02-13T17:35:18.929Z,1.97
2023-02-13T17:37:47.393Z,0.50
2023-02-13T17:40:18.022Z,0.47
2023-02-13T17:42:47.102Z,2.00
2023-02-13T17:45:16.305Z,0.70
2023-02-13T17:47:44.824Z,2.10
2023-02-13T17:50:15.362Z,0.70
2023-02-13T17:52:44.021Z,2.03
2023-02-13T17:55:17.073Z,0.50
2023-02-13T17:57:45.522Z,0.50
2023-02-13T18:00:14.915Z,0.60
2023-02-13T18:02:43.546Z,0.70
2023-02-13T18:05:12.295Z,3.13
2023-02-13T18:07:43.194Z,4.40
2023-02-13T18:10:14.295Z,2.00
2023-02-13T18:12:44.354Z,0.57
2023-02-13T18:15:13.189Z,0.87
2023-02-13T18:17:41.716Z,1.93
2023-02-13T18:20:11.381Z,2.00
2023-02-13T18:22:39.824Z,2.17
2023-02-13T18:25:10.149Z,6.13
2023-02-13T18:27:38.664Z,6.87
2023-02-13T18:30:07.889Z,4.50
2023-02-13T18:32:36.289Z,2.27
2023-02-13T18:35:04.851Z,1.70
2023-02-13T18:37:33.609Z,5.90
2023-02-13T18:40:02.160Z,4.57
2023-02-13T18:42:31.946Z,4.83
2023-02-13T18:45:00.342Z,4.30
2023-02-13T18:47:28.777Z,0.50
2023-02-13T18:49:57.286Z,0.80
2023-02-13T18:52:25.821Z,2.37
2023-02-13T18:54:54.457Z,5.50
2023-02-13T18:57:23.330Z,1.07
2023-02-13T18:59:53.355Z,0.63
2023-02-13T19:02:21.814Z,1.03
2023-02-13T19:04:50.286Z,4.80
2023-02-13T19:07:18.734Z,0.97
2023-02-13T19:09:47.661Z,1.23
2023-02-13T19:12:16.080Z,1.13
2023-02-13T19:14:44.520Z,1.97
2023-02-13T19:17:14.355Z,2.53
2023-02-13T19:19:42.762Z,0.93
2023-02-13T19:22:11.264Z,2.13
2023-02-13T19:24:39.661Z,0.60
2023-02-13T19:27:08.140Z,2.37
2023-02-13T19:29:36.572Z,2.03
2023-02-13T19:32:05.174Z,3.13
2023-02-13T19:34:35.024Z,3.60
2023-02-13T19:37:03.533Z,1.83
2023-02-13T19:39:31.963Z,1.57
2023-02-13T19:42:00.367Z,0.60
2023-02-13T19:44:28.834Z,1.17
2023-02-13T19:46:57.529Z,1.17
2023-02-13T19:49:25.942Z,2.97
2023-02-13T19:51:56.263Z,6.80
2023-02-13T19:54:24.664Z,4.27
2023-02-13T19:56:54.707Z,4.70
2023-02-13T19:59:23.194Z,0.70
2023-02-13T20:01:51.704Z,1.43
2023-02-13T20:04:20.150Z,3.57
2023-02-13T20:06:49.058Z,3.90
2023-02-13T20:09:18.856Z,3.90
2023-02-13T20:11:47.294Z,0.93
2023-02-13T20:14:16.840Z,3.93
2023-02-13T20:16:46.432Z,3.37
2023-02-13T20:19:15.164Z,2.83
2023-02-13T20:21:44.199Z,9.03
2023-02-13T20:24:13.147Z,1.77
2023-02-13T20:26:42.925Z,1.23
2023-02-13T20:29:11.581Z,4.10
2023-02-13T20:31:41.540Z,2.70
2023-02-13T20:34:10.917Z,0.70
2023-02-13T20:36:39.335Z,2.20
2023-02-13T20:39:08.686Z,1.93
2023-02-13T20:41:38.366Z,1.53
2023-02-13T20:44:09.089Z,1.13
2023-02-13T20:46:38.396Z,1.13
2023-02-13T20:49:07.252Z,0.80
2023-02-13T20:51:35.921Z,1.57
2023-02-13T20:54:04.560Z,1.37
2023-02-13T20:56:33.232Z,1.30
2023-02-13T20:59:02.657Z,1.47
2023-02-13T21:01:33.738Z,2.03
2023-02-13T21:04:02.346Z,4.43
2023-02-13T21:06:32.038Z,0.60
2023-02-13T21:09:00.472Z,2.40
2023-02-13T21:11:29.499Z,0.70
2023-02-13T21:13:58.237Z,3.37
2023-02-13T21:16:27.774Z,1.63
2023-02-13T21:18:58.948Z,1.63
2023-02-13T21:21:28.661Z,1.87
2023-02-13T21:23:57.257Z,0.83
2023-02-13T21:26:26.122Z,1.73
2023-02-13T21:28:54.846Z,0.90
2023-02-13T21:31:25.680Z,1.10
2023-02-13T21:33:54.221Z,1.47
2023-02-13T21:36:24.057Z,4.20
2023-02-13T21:38:52.558Z,1.07
2023-02-13T21:41:21.044Z,3.90
2023-02-13T21:43:49.988Z,2.97
2023-02-13T21:46:19.167Z,0.80
2023-02-13T21:48:48.321Z,4.90
2023-02-13T21:51:17.606Z,0.80
2023-02-13T21:53:48.336Z,0.80
2023-02-13T21:56:17.577Z,1.80
2023-02-13T21:58:46.446Z,3.23
2023-02-13T22:01:25.460Z,3.20
2023-02-13T22:03:55.287Z,2.87
2023-02-13T22:06:23.931Z,1.77
2023-02-13T22:08:57.048Z,3.97
2023-02-13T22:11:25.470Z,0.80
2023-02-13T22:13:56.616Z,1.90
2023-02-13T22:16:25.733Z,1.93
2023-02-13T22:18:54.131Z,1.50
2023-02-13T22:21:23.615Z,1.53
2023-02-13T22:23:52.484Z,1.10
2023-02-13T22:26:24.472Z,0.70
2023-02-13T22:28:53.330Z,0.70
2023-02-13T22:31:25.239Z,1.30
2023-02-13T22:34:09.390Z,1.10
2023-02-13T22:36:39.600Z,2.30
2023-02-13T22:39:08.461Z,1.07
2023-02-13T22:41:38.279Z,1.17
2023-02-13T22:44:06.949Z,1.63
2023-02-13T22:46:35.895Z,0.90
2023-02-13T22:49:04.362Z,0.70
2023-02-13T22:51:33.923Z,7.93
2023-02-13T22:54:02.546Z,3.30
2023-02-13T22:56:31.588Z,1.73
2023-02-13T22:59:01.797Z,2.20
2023-02-13T23:01:30.526Z,1.47
2023-02-13T23:03:59.260Z,0.70
2023-02-13T23:06:28.541Z,3.17
2023-02-13T23:08:57.044Z,1.37
2023-02-13T23:11:43.674Z,1.40
2023-02-13T23:14:13.637Z,2.13
2023-02-13T23:17:00.158Z,1.47
2023-02-13T23:19:29.845Z,1.83
2023-02-13T23:21:58.432Z,1.43
2023-02-13T23:24:26.899Z,3.03
2023-02-13T23:26:55.364Z,2.60
2023-02-13T23:29:25.207Z,1.37
2023-02-13T23:31:53.718Z,1.77
2023-02-13T23:34:22.313Z,4.67
2023-02-13T23:36:50.722Z,2.70
2023-02-13T23:39:19.896Z,0.70
2023-02-13T23:41:48.357Z,0.80
2023-02-13T23:44:16.779Z,0.80
2023-02-13T23:46:46.647Z,3.40
2023-02-13T23:49:15.085Z,2.83
2023-02-13T23:51:43.453Z,4.00
2023-02-13T23:54:15.458Z,1.67
2023-02-13T23:56:43.835Z,1.00
2023-02-13T23:59:12.533Z,1.43
